FVFA

Details ICAO FVFA (VFA)
Name VICTORIA FALLS INTL
Region Zimbabwe
Timezone Africa/Harare (UTC+2.0)
Plans Departing 24
Arriving 28
Stats Elevation 3,490 ft / 1,064 m (AMSL)
Location -18.095880° 25.839005°
Runways 1
Magnetic Variation 7.526° W
Sunrise 2017-12-18 03:38:13 UTC / 2017-12-18 05:38:13 Local
Sunset 2017-12-18 16:50:56 UTC / 2017-12-18 18:50:56 Local
Advertisement - Login to hide

Runways

ID Width Length Bearing (true) Bearing (mag) Surface Threshold Offset Overrun Length
12 98 ft / 30 m 7,705 ft / 2,348 m 110.20° 117.73° Asphalt 0 ft / 0 m 0 ft / 0 m
30 98 ft / 30 m 7,705 ft / 2,348 m 290.19° 297.72° Asphalt 0 ft / 0 m 187 ft / 57 m

Approach Navaids

Runway Type Ident Frequency Range Bearing (true) Bearing (mag) Slope Elevation
12 Localiser IFA 110.70 MHz 18 nm / 33 km 110.69° 118.22° - 3,490 ft / 1,064 m (AMSL)
12 Glidescope IFA 110.70 MHz 10 nm / 19 km 110.19° 117.72° 3.00° 3,490 ft / 1,064 m (AMSL)

Map

Weather


0- 5 10 15 20 25 30 35+ Temperature / ° C

Clouds and Precipitation
Forecast for 2017-12-18 06:00 UTC. Updated 2 hours ago

Ground ~20,000 ft ~40,000 ft Winds

METAR

FVFA 180600Z 04009KT 010V070 CAVOK 25/16 Q1017 NOSIG

TAF

Not found

Frequencies

Tower 121.10 MHz FALLS TWR
Approach 121.10 MHz FALLS APP
Warning: Do not use this data for real-world aviation or navigation. No guarantee of current accuracy is given.